Current Weather

Elkhart Muni

Elkhart, Indiana (KEKM)

Report from: Friday, February 23, 2024 2:15 PM EST
Current time: Friday, February 23, 2024 2:41 PM EST

Nearby weather – Weather history – Daily summaries
Weather forecast

Temperature8.7°C (47.7°F)
Wind chill5.9°C (42.6°F)
Dew point-0.6°C (30.9°F)
Winds 10 kts (5.1 m/s, 11.5 mph) West-Northwest (300°)
Visibility10 mi. (16.1 km)
Clouds Sky clear
Altimeter29.65 in.Hg (1004 mB)
Relative humidity52 %
Density altitude-352 ft. (-107 m)
Remarks System requires maintenance
Automated weather observing station with precipitation discriminator
Flight conditions Visual Meteorological Conditions
Raw dataKEKM 231915Z 30010KT 10SM CLR 09/M01 A2965 RMK AO2 T00871006 $
An error has occurred. This application may no longer respond until reloaded. Reload 🗙